Allegheny, Pennsylvania
Current Conditions -  °F | °C
As of 12:53 AM on Monday 22 Dec 2014 (Local Time) from KAGC Reporting Station
Clear Clear  
Wind Chill: 25°   Ceiling: Unl
Heat Index: 25°   Visibility: 8mi
Dew Point: 19°   Wind: 3mph
Humidity: 78%   Direction: 80°E
Pressure: 30.15"   Gusts: NA
Location:  40.4725°N, 80.0082°W
Report Text: KAGC 220553Z AUTO 08003KT 8SM CLR M04/M07 A3015 RMK AO2 SLP228 T10391072 11017 21039 58015 TSNO
Loading
Personal Weather Stations






























Interactive Weather Map New forecast layout! Learn more

10-Day Weather Forecast

Advertisements
Track Severe Weather on mobile